sensor_id;sensor_type;location;lat;lon;timestamp;P1;P2;P0
33264;PMS5003;31404;53.974;-1.086;2023-02-22T00:00:39;55;52;
33264;PMS5003;31404;53.974;-1.086;2023-02-22T00:05:35;53;50;
33264;PMS5003;31404;53.974;-1.086;2023-02-22T00:10:34;54;48;
33264;PMS5003;31404;53.974;-1.086;2023-02-22T00:15:34;52;47;
33264;PMS5003;31404;53.974;-1.086;2023-02-22T00:20:35;49;45;
33264;PMS5003;31404;53.974;-1.086;2023-02-22T00:25:34;55;48;
33264;PMS5003;31404;53.974;-1.086;2023-02-22T00:30:34;58;49;
33264;PMS5003;31404;53.974;-1.086;2023-02-22T00:35:34;57;53;
33264;PMS5003;31404;53.974;-1.086;2023-02-22T00:40:34;52;47;
33264;PMS5003;31404;53.974;-1.086;2023-02-22T00:45:34;53;47;
33264;PMS5003;31404;53.974;-1.086;2023-02-22T00:50:34;51;46;
33264;PMS5003;31404;53.974;-1.086;2023-02-22T00:55:34;52;52;
33264;PMS5003;31404;53.974;-1.086;2023-02-22T01:00:36;48;48;
33264;PMS5003;31404;53.974;-1.086;2023-02-22T01:05:34;49;44;
33264;PMS5003;31404;53.974;-1.086;2023-02-22T01:10:35;56;52;
33264;PMS5003;31404;53.974;-1.086;2023-02-22T01:15:35;48;46;
33264;PMS5003;31404;53.974;-1.086;2023-02-22T01:20:34;48;45;
33264;PMS5003;31404;53.974;-1.086;2023-02-22T01:25:34;42;40;
33264;PMS5003;31404;53.974;-1.086;2023-02-22T01:30:35;46;39;
33264;PMS5003;31404;53.974;-1.086;2023-02-22T01:35:35;54;44;
33264;PMS5003;31404;53.974;-1.086;2023-02-22T01:40:35;59;51;
33264;PMS5003;31404;53.974;-1.086;2023-02-22T01:50:34;50;41;
33264;PMS5003;31404;53.974;-1.086;2023-02-22T01:55:34;42;42;
33264;PMS5003;31404;53.974;-1.086;2023-02-22T02:00:34;51;46;
33264;PMS5003;31404;53.974;-1.086;2023-02-22T02:05:34;54;40;
33264;PMS5003;31404;53.974;-1.086;2023-02-22T02:10:39;51;46;
33264;PMS5003;31404;53.974;-1.086;2023-02-22T02:15:34;51;47;
33264;PMS5003;31404;53.974;-1.086;2023-02-22T02:20:36;51;45;
33264;PMS5003;31404;53.974;-1.086;2023-02-22T02:35:38;53;51;
33264;PMS5003;31404;53.974;-1.086;2023-02-22T02:40:35;53;47;
33264;PMS5003;31404;53.974;-1.086;2023-02-22T02:45:35;53;47;
33264;PMS5003;31404;53.974;-1.086;2023-02-22T02:50:35;54;46;
33264;PMS5003;31404;53.974;-1.086;2023-02-22T02:55:35;54;50;
33264;PMS5003;31404;53.974;-1.086;2023-02-22T03:00:36;54;45;
33264;PMS5003;31404;53.974;-1.086;2023-02-22T03:15:37;48;45;
33264;PMS5003;31404;53.974;-1.086;2023-02-22T03:20:38;48;41;
33264;PMS5003;31404;53.974;-1.086;2023-02-22T03:25:35;46;40;
33264;PMS5003;31404;53.974;-1.086;2023-02-22T03:30:35;61;50;
33264;PMS5003;31404;53.974;-1.086;2023-02-22T03:35:35;51;44;
33264;PMS5003;31404;53.974;-1.086;2023-02-22T03:40:35;51;40;
33264;PMS5003;31404;53.974;-1.086;2023-02-22T03:45:34;60;51;
33264;PMS5003;31404;53.974;-1.086;2023-02-22T03:50:34;54;43;
33264;PMS5003;31404;53.974;-1.086;2023-02-22T03:55:34;53;45;
33264;PMS5003;31404;53.974;-1.086;2023-02-22T04:00:34;48;41;
33264;PMS5003;31404;53.974;-1.086;2023-02-22T04:05:34;63;54;
33264;PMS5003;31404;53.974;-1.086;2023-02-22T04:10:33;57;50;
33264;PMS5003;31404;53.974;-1.086;2023-02-22T04:15:35;66;54;
33264;PMS5003;31404;53.974;-1.086;2023-02-22T04:20:34;52;45;
33264;PMS5003;31404;53.974;-1.086;2023-02-22T04:25:34;52;44;
33264;PMS5003;31404;53.974;-1.086;2023-02-22T04:30:34;64;54;
33264;PMS5003;31404;53.974;-1.086;2023-02-22T04:35:34;51;40;
33264;PMS5003;31404;53.974;-1.086;2023-02-22T04:40:34;54;46;
33264;PMS5003;31404;53.974;-1.086;2023-02-22T04:45:34;58;47;
33264;PMS5003;31404;53.974;-1.086;2023-02-22T04:50:34;52;43;
33264;PMS5003;31404;53.974;-1.086;2023-02-22T04:55:33;64;54;
33264;PMS5003;31404;53.974;-1.086;2023-02-22T05:00:34;54;51;
33264;PMS5003;31404;53.974;-1.086;2023-02-22T05:05:34;53;44;
33264;PMS5003;31404;53.974;-1.086;2023-02-22T05:10:34;56;54;
33264;PMS5003;31404;53.974;-1.086;2023-02-22T05:15:35;51;48;
33264;PMS5003;31404;53.974;-1.086;2023-02-22T05:20:34;62;51;
33264;PMS5003;31404;53.974;-1.086;2023-02-22T05:25:34;57;48;
33264;PMS5003;31404;53.974;-1.086;2023-02-22T05:30:35;49;46;
33264;PMS5003;31404;53.974;-1.086;2023-02-22T05:35:34;46;40;
33264;PMS5003;31404;53.974;-1.086;2023-02-22T05:40:33;42;36;
33264;PMS5003;31404;53.974;-1.086;2023-02-22T05:45:34;32;28;
33264;PMS5003;31404;53.974;-1.086;2023-02-22T05:50:34;34;30;
33264;PMS5003;31404;53.974;-1.086;2023-02-22T05:55:34;31;31;
33264;PMS5003;31404;53.974;-1.086;2023-02-22T06:00:39;29;29;
33264;PMS5003;31404;53.974;-1.086;2023-02-22T06:05:34;34;31;
33264;PMS5003;31404;53.974;-1.086;2023-02-22T06:10:34;29;29;
33264;PMS5003;31404;53.974;-1.086;2023-02-22T06:15:34;27;24;
33264;PMS5003;31404;53.974;-1.086;2023-02-22T06:20:34;26;24;
33264;PMS5003;31404;53.974;-1.086;2023-02-22T06:25:37;33;28;
33264;PMS5003;31404;53.974;-1.086;2023-02-22T06:30:34;31;29;
33264;PMS5003;31404;53.974;-1.086;2023-02-22T06:35:34;31;30;
33264;PMS5003;31404;53.974;-1.086;2023-02-22T06:40:34;31;24;
33264;PMS5003;31404;53.974;-1.086;2023-02-22T06:45:34;24;21;
33264;PMS5003;31404;53.974;-1.086;2023-02-22T06:55:34;25;21;
33264;PMS5003;31404;53.974;-1.086;2023-02-22T07:00:34;15;15;
33264;PMS5003;31404;53.974;-1.086;2023-02-22T07:05:34;17;16;
33264;PMS5003;31404;53.974;-1.086;2023-02-22T07:10:35;23;16;
33264;PMS5003;31404;53.974;-1.086;2023-02-22T07:15:34;19;15;
33264;PMS5003;31404;53.974;-1.086;2023-02-22T07:20:34;14;14;
33264;PMS5003;31404;53.974;-1.086;2023-02-22T07:25:34;16;15;
33264;PMS5003;31404;53.974;-1.086;2023-02-22T07:30:34;18;15;
33264;PMS5003;31404;53.974;-1.086;2023-02-22T07:35:34;11;11;
33264;PMS5003;31404;53.974;-1.086;2023-02-22T07:40:34;18;18;
33264;PMS5003;31404;53.974;-1.086;2023-02-22T07:45:34;16;13;
33264;PMS5003;31404;53.974;-1.086;2023-02-22T07:50:34;14;14;
33264;PMS5003;31404;53.974;-1.086;2023-02-22T07:55:34;19;15;
33264;PMS5003;31404;53.974;-1.086;2023-02-22T08:00:35;14;14;
33264;PMS5003;31404;53.974;-1.086;2023-02-22T08:05:35;13;13;
33264;PMS5003;31404;53.974;-1.086;2023-02-22T08:10:34;21;15;
33264;PMS5003;31404;53.974;-1.086;2023-02-22T08:15:34;15;15;
33264;PMS5003;31404;53.974;-1.086;2023-02-22T08:20:34;21;16;
33264;PMS5003;31404;53.974;-1.086;2023-02-22T08:25:34;21;19;
33264;PMS5003;31404;53.974;-1.086;2023-02-22T08:30:34;14;14;
33264;PMS5003;31404;53.974;-1.086;2023-02-22T08:35:34;17;15;
33264;PMS5003;31404;53.974;-1.086;2023-02-22T08:40:35;18;15;
33264;PMS5003;31404;53.974;-1.086;2023-02-22T08:45:34;15;15;
33264;PMS5003;31404;53.974;-1.086;2023-02-22T08:50:34;19;16;
33264;PMS5003;31404;53.974;-1.086;2023-02-22T08:55:35;20;19;
33264;PMS5003;31404;53.974;-1.086;2023-02-22T09:00:35;19;16;
33264;PMS5003;31404;53.974;-1.086;2023-02-22T09:05:34;17;17;
33264;PMS5003;31404;53.974;-1.086;2023-02-22T09:10:34;15;14;
33264;PMS5003;31404;53.974;-1.086;2023-02-22T09:15:34;16;15;
33264;PMS5003;31404;53.974;-1.086;2023-02-22T09:20:33;22;17;
33264;PMS5003;31404;53.974;-1.086;2023-02-22T09:25:34;21;18;
33264;PMS5003;31404;53.974;-1.086;2023-02-22T09:30:34;16;16;
33264;PMS5003;31404;53.974;-1.086;2023-02-22T09:35:34;18;13;
33264;PMS5003;31404;53.974;-1.086;2023-02-22T09:40:35;18;14;
33264;PMS5003;31404;53.974;-1.086;2023-02-22T09:45:36;16;16;
33264;PMS5003;31404;53.974;-1.086;2023-02-22T09:50:35;13;13;
33264;PMS5003;31404;53.974;-1.086;2023-02-22T09:55:35;13;13;
33264;PMS5003;31404;53.974;-1.086;2023-02-22T10:00:34;14;12;
33264;PMS5003;31404;53.974;-1.086;2023-02-22T10:05:35;17;15;
33264;PMS5003;31404;53.974;-1.086;2023-02-22T10:10:35;13;11;
33264;PMS5003;31404;53.974;-1.086;2023-02-22T10:15:37;12;10;
33264;PMS5003;31404;53.974;-1.086;2023-02-22T10:25:35;18;14;
33264;PMS5003;31404;53.974;-1.086;2023-02-22T10:30:34;11;11;
33264;PMS5003;31404;53.974;-1.086;2023-02-22T10:35:34;16;15;
33264;PMS5003;31404;53.974;-1.086;2023-02-22T10:40:36;16;15;
33264;PMS5003;31404;53.974;-1.086;2023-02-22T10:45:34;12;12;
33264;PMS5003;31404;53.974;-1.086;2023-02-22T10:50:35;8;5;
33264;PMS5003;31404;53.974;-1.086;2023-02-22T10:55:34;6;6;
33264;PMS5003;31404;53.974;-1.086;2023-02-22T11:00:36;5;5;
33264;PMS5003;31404;53.974;-1.086;2023-02-22T11:05:35;6;4;
33264;PMS5003;31404;53.974;-1.086;2023-02-22T11:10:35;3;3;
33264;PMS5003;31404;53.974;-1.086;2023-02-22T11:15:35;2;2;
33264;PMS5003;31404;53.974;-1.086;2023-02-22T11:20:36;2;2;
33264;PMS5003;31404;53.974;-1.086;2023-02-22T11:25:35;0;0;
33264;PMS5003;31404;53.974;-1.086;2023-02-22T11:30:34;1;1;
33264;PMS5003;31404;53.974;-1.086;2023-02-22T11:35:36;1;1;
33264;PMS5003;31404;53.974;-1.086;2023-02-22T11:40:34;1;1;
33264;PMS5003;31404;53.974;-1.086;2023-02-22T11:45:34;2;2;
33264;PMS5003;31404;53.974;-1.086;2023-02-22T11:50:37;1;1;
33264;PMS5003;31404;53.974;-1.086;2023-02-22T11:55:34;1;1;
33264;PMS5003;31404;53.974;-1.086;2023-02-22T12:00:38;1;1;
33264;PMS5003;31404;53.974;-1.086;2023-02-22T12:15:35;0;0;
33264;PMS5003;31404;53.974;-1.086;2023-02-22T12:20:36;0;0;
33264;PMS5003;31404;53.974;-1.086;2023-02-22T12:25:35;0;0;
33264;PMS5003;31404;53.974;-1.086;2023-02-22T12:30:35;0;0;
33264;PMS5003;31404;53.974;-1.086;2023-02-22T12:35:35;1;0;
33264;PMS5003;31404;53.974;-1.086;2023-02-22T12:40:36;0;0;
33264;PMS5003;31404;53.974;-1.086;2023-02-22T12:45:35;1;1;
33264;PMS5003;31404;53.974;-1.086;2023-02-22T12:50:34;1;1;
33264;PMS5003;31404;53.974;-1.086;2023-02-22T12:55:34;0;0;
33264;PMS5003;31404;53.974;-1.086;2023-02-22T13:00:36;1;1;
33264;PMS5003;31404;53.974;-1.086;2023-02-22T13:05:35;0;0;
33264;PMS5003;31404;53.974;-1.086;2023-02-22T13:15:37;5;5;
33264;PMS5003;31404;53.974;-1.086;2023-02-22T13:20:35;1;1;
33264;PMS5003;31404;53.974;-1.086;2023-02-22T13:25:36;1;1;
33264;PMS5003;31404;53.974;-1.086;2023-02-22T13:30:35;1;1;
33264;PMS5003;31404;53.974;-1.086;2023-02-22T13:55:34;0;0;
33264;PMS5003;31404;53.974;-1.086;2023-02-22T14:00:42;1;1;
33264;PMS5003;31404;53.974;-1.086;2023-02-22T14:05:35;4;3;
33264;PMS5003;31404;53.974;-1.086;2023-02-22T14:10:36;1;1;
33264;PMS5003;31404;53.974;-1.086;2023-02-22T14:15:35;0;0;
33264;PMS5003;31404;53.974;-1.086;2023-02-22T14:20:35;1;1;
33264;PMS5003;31404;53.974;-1.086;2023-02-22T14:30:34;1;1;
33264;PMS5003;31404;53.974;-1.086;2023-02-22T14:35:36;1;1;
33264;PMS5003;31404;53.974;-1.086;2023-02-22T14:40:35;1;1;
33264;PMS5003;31404;53.974;-1.086;2023-02-22T14:45:34;1;1;
33264;PMS5003;31404;53.974;-1.086;2023-02-22T14:50:36;1;1;
33264;PMS5003;31404;53.974;-1.086;2023-02-22T14:55:36;2;2;
33264;PMS5003;31404;53.974;-1.086;2023-02-22T15:00:36;2;2;
33264;PMS5003;31404;53.974;-1.086;2023-02-22T15:05:35;1;1;
33264;PMS5003;31404;53.974;-1.086;2023-02-22T15:15:36;0;0;
33264;PMS5003;31404;53.974;-1.086;2023-02-22T15:20:34;0;0;
33264;PMS5003;31404;53.974;-1.086;2023-02-22T15:25:34;0;0;
33264;PMS5003;31404;53.974;-1.086;2023-02-22T15:30:34;0;0;
33264;PMS5003;31404;53.974;-1.086;2023-02-22T15:35:34;1;1;
33264;PMS5003;31404;53.974;-1.086;2023-02-22T15:40:36;0;0;
33264;PMS5003;31404;53.974;-1.086;2023-02-22T15:45:34;0;0;
33264;PMS5003;31404;53.974;-1.086;2023-02-22T15:50:34;0;0;
33264;PMS5003;31404;53.974;-1.086;2023-02-22T15:55:34;0;0;
33264;PMS5003;31404;53.974;-1.086;2023-02-22T16:00:34;0;0;
33264;PMS5003;31404;53.974;-1.086;2023-02-22T16:05:37;0;0;
33264;PMS5003;31404;53.974;-1.086;2023-02-22T16:10:33;0;0;
33264;PMS5003;31404;53.974;-1.086;2023-02-22T16:15:34;0;0;
33264;PMS5003;31404;53.974;-1.086;2023-02-22T16:20:34;0;0;
33264;PMS5003;31404;53.974;-1.086;2023-02-22T16:25:33;1;1;
33264;PMS5003;31404;53.974;-1.086;2023-02-22T16:30:35;0;0;
33264;PMS5003;31404;53.974;-1.086;2023-02-22T16:35:34;1;1;
33264;PMS5003;31404;53.974;-1.086;2023-02-22T16:40:35;5;2;
33264;PMS5003;31404;53.974;-1.086;2023-02-22T16:45:34;1;1;
33264;PMS5003;31404;53.974;-1.086;2023-02-22T16:50:34;0;0;
33264;PMS5003;31404;53.974;-1.086;2023-02-22T16:55:34;0;0;
33264;PMS5003;31404;53.974;-1.086;2023-02-22T17:00:34;0;0;
33264;PMS5003;31404;53.974;-1.086;2023-02-22T17:05:34;2;2;
33264;PMS5003;31404;53.974;-1.086;2023-02-22T17:10:34;1;1;
33264;PMS5003;31404;53.974;-1.086;2023-02-22T17:15:35;1;1;
33264;PMS5003;31404;53.974;-1.086;2023-02-22T17:20:34;1;1;
33264;PMS5003;31404;53.974;-1.086;2023-02-22T17:25:37;0;0;
33264;PMS5003;31404;53.974;-1.086;2023-02-22T17:30:36;1;1;
33264;PMS5003;31404;53.974;-1.086;2023-02-22T17:35:35;1;1;
33264;PMS5003;31404;53.974;-1.086;2023-02-22T17:40:35;20;17;
33264;PMS5003;31404;53.974;-1.086;2023-02-22T17:45:36;0;0;
33264;PMS5003;31404;53.974;-1.086;2023-02-22T17:50:35;0;0;
33264;PMS5003;31404;53.974;-1.086;2023-02-22T17:55:34;1;1;
33264;PMS5003;31404;53.974;-1.086;2023-02-22T18:00:34;2;1;
33264;PMS5003;31404;53.974;-1.086;2023-02-22T18:10:34;3;3;
33264;PMS5003;31404;53.974;-1.086;2023-02-22T18:15:35;2;2;
33264;PMS5003;31404;53.974;-1.086;2023-02-22T18:20:34;5;2;
33264;PMS5003;31404;53.974;-1.086;2023-02-22T18:25:34;2;1;
33264;PMS5003;31404;53.974;-1.086;2023-02-22T18:30:35;6;3;
33264;PMS5003;31404;53.974;-1.086;2023-02-22T18:35:34;3;2;
33264;PMS5003;31404;53.974;-1.086;2023-02-22T18:40:33;1;1;
33264;PMS5003;31404;53.974;-1.086;2023-02-22T18:45:33;6;2;
33264;PMS5003;31404;53.974;-1.086;2023-02-22T18:50:36;1;1;
33264;PMS5003;31404;53.974;-1.086;2023-02-22T18:55:34;4;2;
33264;PMS5003;31404;53.974;-1.086;2023-02-22T19:00:34;3;1;
33264;PMS5003;31404;53.974;-1.086;2023-02-22T19:05:34;1;1;
33264;PMS5003;31404;53.974;-1.086;2023-02-22T19:10:34;7;2;
33264;PMS5003;31404;53.974;-1.086;2023-02-22T19:15:34;2;2;
33264;PMS5003;31404;53.974;-1.086;2023-02-22T19:20:34;6;6;
33264;PMS5003;31404;53.974;-1.086;2023-02-22T19:25:36;4;3;
33264;PMS5003;31404;53.974;-1.086;2023-02-22T19:30:34;3;2;
33264;PMS5003;31404;53.974;-1.086;2023-02-22T19:35:34;5;3;
33264;PMS5003;31404;53.974;-1.086;2023-02-22T19:40:35;6;3;
33264;PMS5003;31404;53.974;-1.086;2023-02-22T19:50:34;3;3;
33264;PMS5003;31404;53.974;-1.086;2023-02-22T19:55:35;3;3;
33264;PMS5003;31404;53.974;-1.086;2023-02-22T20:00:34;3;3;
33264;PMS5003;31404;53.974;-1.086;2023-02-22T20:05:37;6;5;
33264;PMS5003;31404;53.974;-1.086;2023-02-22T20:10:34;2;2;
33264;PMS5003;31404;53.974;-1.086;2023-02-22T20:15:35;5;5;
33264;PMS5003;31404;53.974;-1.086;2023-02-22T20:20:34;4;4;
33264;PMS5003;31404;53.974;-1.086;2023-02-22T20:25:34;3;3;
33264;PMS5003;31404;53.974;-1.086;2023-02-22T20:30:35;5;5;
33264;PMS5003;31404;53.974;-1.086;2023-02-22T20:35:34;6;4;
33264;PMS5003;31404;53.974;-1.086;2023-02-22T20:40:34;4;4;
33264;PMS5003;31404;53.974;-1.086;2023-02-22T20:45:35;5;5;
33264;PMS5003;31404;53.974;-1.086;2023-02-22T20:50:34;4;4;
33264;PMS5003;31404;53.974;-1.086;2023-02-22T20:55:34;5;3;
33264;PMS5003;31404;53.974;-1.086;2023-02-22T21:00:34;4;4;
33264;PMS5003;31404;53.974;-1.086;2023-02-22T21:05:34;8;5;
33264;PMS5003;31404;53.974;-1.086;2023-02-22T21:15:34;4;4;
33264;PMS5003;31404;53.974;-1.086;2023-02-22T21:20:34;3;3;
33264;PMS5003;31404;53.974;-1.086;2023-02-22T21:25:34;4;4;
33264;PMS5003;31404;53.974;-1.086;2023-02-22T21:30:34;4;4;
33264;PMS5003;31404;53.974;-1.086;2023-02-22T21:35:35;0;0;
33264;PMS5003;31404;53.974;-1.086;2023-02-22T21:40:34;1;0;
33264;PMS5003;31404;53.974;-1.086;2023-02-22T21:45:34;1;1;
33264;PMS5003;31404;53.974;-1.086;2023-02-22T21:50:34;2;2;
33264;PMS5003;31404;53.974;-1.086;2023-02-22T21:55:34;0;0;
33264;PMS5003;31404;53.974;-1.086;2023-02-22T22:00:34;1;1;
33264;PMS5003;31404;53.974;-1.086;2023-02-22T22:10:35;3;3;
33264;PMS5003;31404;53.974;-1.086;2023-02-22T22:15:34;3;3;
33264;PMS5003;31404;53.974;-1.086;2023-02-22T22:20:34;2;2;
33264;PMS5003;31404;53.974;-1.086;2023-02-22T22:25:34;2;2;
33264;PMS5003;31404;53.974;-1.086;2023-02-22T22:30:35;5;4;
33264;PMS5003;31404;53.974;-1.086;2023-02-22T22:35:33;2;2;
33264;PMS5003;31404;53.974;-1.086;2023-02-22T22:40:34;3;3;
33264;PMS5003;31404;53.974;-1.086;2023-02-22T22:45:34;3;3;
33264;PMS5003;31404;53.974;-1.086;2023-02-22T22:50:34;3;2;
33264;PMS5003;31404;53.974;-1.086;2023-02-22T23:00:34;2;2;
33264;PMS5003;31404;53.974;-1.086;2023-02-22T23:05:34;3;3;
33264;PMS5003;31404;53.974;-1.086;2023-02-22T23:10:35;2;1;
33264;PMS5003;31404;53.974;-1.086;2023-02-22T23:15:35;4;2;
33264;PMS5003;31404;53.974;-1.086;2023-02-22T23:20:34;3;3;
33264;PMS5003;31404;53.974;-1.086;2023-02-22T23:25:35;2;1;
33264;PMS5003;31404;53.974;-1.086;2023-02-22T23:30:36;2;2;
33264;PMS5003;31404;53.974;-1.086;2023-02-22T23:35:34;1;1;
33264;PMS5003;31404;53.974;-1.086;2023-02-22T23:40:34;0;0;
33264;PMS5003;31404;53.974;-1.086;2023-02-22T23:45:34;2;2;
33264;PMS5003;31404;53.974;-1.086;2023-02-22T23:50:34;3;1;
33264;PMS5003;31404;53.974;-1.086;2023-02-22T23:55:36;1;1;
